createdAt,value
2023-02-24T00:02:06.133Z,53.60
2023-02-24T00:04:38.725Z,53.50
2023-02-24T00:07:12.835Z,53.17
2023-02-24T00:09:40.414Z,54.67
2023-02-24T00:12:12.127Z,54.33
2023-02-24T00:14:42.149Z,74.22
2023-02-24T00:17:15.170Z,76.35
2023-02-24T00:19:43.193Z,79.35
2023-02-24T00:22:11.025Z,78.75
2023-02-24T00:24:38.663Z,78.25
2023-02-24T00:27:07.995Z,78.43
2023-02-24T00:29:37.682Z,83.22
2023-02-24T00:32:08.072Z,82.72
2023-02-24T00:34:37.745Z,82.50
2023-02-24T00:37:09.692Z,84.20
2023-02-24T00:39:41.360Z,83.25
2023-02-24T00:42:11.844Z,84.35
2023-02-24T00:44:43.964Z,82.82
2023-02-24T00:47:14.428Z,81.80
2023-02-24T00:49:43.492Z,78.63
2023-02-24T00:52:19.525Z,79.30
2023-02-24T00:54:49.244Z,79.82
2023-02-24T00:57:23.516Z,84.28
2023-02-24T00:59:52.266Z,82.20
2023-02-24T01:02:20.903Z,82.05
2023-02-24T01:04:50.042Z,77.88
2023-02-24T01:07:17.770Z,78.50
2023-02-24T01:09:45.341Z,78.55
2023-02-24T01:12:32.181Z,78.90
2023-02-24T01:14:59.985Z,76.32
2023-02-24T01:17:27.655Z,75.65
2023-02-24T01:20:00.420Z,72.45
2023-02-24T01:22:28.177Z,73.38
2023-02-24T01:24:55.620Z,74.63
2023-02-24T01:27:23.108Z,75.80
2023-02-24T01:29:50.698Z,73.63
2023-02-24T01:32:21.530Z,74.32
2023-02-24T01:34:52.799Z,75.28
2023-02-24T01:37:21.436Z,75.00
2023-02-24T01:39:50.200Z,76.47
2023-02-24T01:42:23.447Z,77.72
2023-02-24T01:44:52.022Z,77.68
2023-02-24T01:47:23.417Z,76.50
2023-02-24T01:49:54.751Z,76.40
2023-02-24T01:52:25.562Z,74.43
2023-02-24T01:54:55.578Z,76.75
2023-02-24T01:57:26.136Z,76.35
2023-02-24T02:00:02.189Z,77.78
2023-02-24T02:02:30.126Z,75.75
2023-02-24T02:05:03.811Z,74.53
2023-02-24T02:07:31.794Z,75.80
2023-02-24T02:10:04.175Z,76.72
2023-02-24T02:12:44.125Z,77.70
2023-02-24T02:15:21.431Z,77.40
2023-02-24T02:18:03.642Z,78.43
2023-02-24T02:20:59.434Z,76.70
2023-02-24T02:23:54.738Z,79.30
2023-02-24T02:26:59.180Z,79.30
2023-02-24T02:29:42.259Z,81.43
2023-02-24T02:32:52.237Z,82.27
2023-02-24T02:35:32.587Z,84.82
2023-02-24T02:38:19.868Z,86.13
2023-02-24T02:41:07.367Z,86.75
2023-02-24T02:43:49.204Z,82.57
2023-02-24T02:46:35.114Z,81.65
2023-02-24T02:49:44.154Z,81.05
2023-02-24T02:52:26.783Z,77.40
2023-02-24T02:55:09.356Z,77.40
2023-02-24T02:57:40.295Z,80.68
2023-02-24T03:00:21.498Z,77.55
2023-02-24T03:02:55.404Z,78.28
2023-02-24T03:05:30.816Z,80.53
2023-02-24T03:08:02.111Z,82.43
2023-02-24T03:10:34.290Z,80.97
2023-02-24T03:13:06.490Z,79.35
2023-02-24T03:15:34.796Z,80.63
2023-02-24T03:18:10.737Z,83.50
2023-02-24T03:21:07.629Z,86.18
2023-02-24T03:23:45.356Z,84.13
2023-02-24T03:26:32.919Z,86.20
2023-02-24T03:29:01.026Z,87.25
2023-02-24T03:31:46.608Z,84.78
2023-02-24T03:34:46.696Z,91.00
2023-02-24T03:37:14.396Z,90.28
2023-02-24T03:39:42.463Z,82.35
2023-02-24T03:42:19.351Z,81.65
2023-02-24T03:44:48.568Z,76.25
2023-02-24T03:47:20.347Z,80.25
2023-02-24T03:49:50.305Z,72.28
2023-02-24T03:52:23.182Z,70.57
2023-02-24T03:54:54.502Z,74.18
2023-02-24T03:57:28.076Z,77.18
2023-02-24T04:00:22.829Z,77.57
2023-02-24T04:03:15.409Z,78.18
2023-02-24T04:05:55.737Z,80.35
2023-02-24T04:08:27.066Z,79.90
2023-02-24T04:11:05.519Z,78.75
2023-02-24T04:13:49.838Z,78.88
2023-02-24T04:16:30.175Z,78.95
2023-02-24T04:19:03.935Z,80.57
2023-02-24T04:21:37.755Z,85.35
2023-02-24T04:24:11.512Z,88.35
2023-02-24T04:26:40.753Z,89.88
2023-02-24T04:29:17.746Z,90.28
2023-02-24T04:31:50.370Z,91.45
2023-02-24T04:34:20.280Z,89.93
2023-02-24T04:36:49.936Z,91.87
2023-02-24T04:39:20.235Z,89.72
2023-02-24T04:41:52.154Z,88.40
2023-02-24T04:44:21.395Z,87.45
2023-02-24T04:46:50.519Z,86.40
2023-02-24T04:49:19.872Z,90.40
2023-02-24T04:51:47.497Z,89.65
2023-02-24T04:54:20.002Z,91.75
2023-02-24T04:56:50.851Z,90.60
2023-02-24T04:59:20.608Z,91.60
2023-02-24T05:01:51.724Z,92.03
2023-02-24T05:04:19.693Z,92.30
2023-02-24T05:06:47.467Z,88.63
2023-02-24T05:09:18.178Z,93.72
2023-02-24T05:11:53.107Z,91.00
2023-02-24T05:14:25.113Z,91.63
2023-02-24T05:16:53.042Z,91.25
2023-02-24T05:19:39.185Z,92.40
2023-02-24T05:22:11.636Z,91.22
2023-02-24T05:24:41.255Z,91.70
2023-02-24T05:27:11.475Z,91.00
2023-02-24T05:29:40.534Z,88.60
2023-02-24T05:32:08.862Z,91.75
2023-02-24T05:34:39.127Z,88.93
2023-02-24T05:37:10.767Z,90.57
2023-02-24T05:39:38.720Z,85.32
2023-02-24T05:42:07.209Z,84.30
2023-02-24T05:44:35.877Z,88.13
2023-02-24T05:47:05.553Z,88.07
2023-02-24T05:49:35.248Z,90.60
2023-02-24T05:52:09.012Z,88.30
2023-02-24T05:54:42.751Z,88.05
2023-02-24T05:57:18.581Z,89.82
2023-02-24T05:59:48.320Z,90.32
2023-02-24T06:02:27.184Z,92.60
2023-02-24T06:04:55.693Z,91.50
2023-02-24T06:07:26.324Z,88.53
2023-02-24T06:09:57.423Z,87.73
2023-02-24T06:12:33.920Z,90.05
2023-02-24T06:15:07.726Z,85.35
2023-02-24T06:17:35.785Z,87.32
2023-02-24T06:20:13.762Z,90.95
2023-02-24T06:22:44.620Z,89.03
2023-02-24T06:25:12.781Z,90.68
2023-02-24T06:27:40.237Z,91.72
2023-02-24T06:30:10.359Z,90.53
2023-02-24T06:32:39.738Z,89.43
2023-02-24T06:35:09.090Z,91.47
2023-02-24T06:37:43.607Z,88.82
2023-02-24T06:40:15.891Z,91.63
2023-02-24T06:42:54.981Z,91.78
2023-02-24T06:45:24.321Z,90.00
2023-02-24T06:47:52.182Z,89.32
2023-02-24T06:50:20.700Z,91.13
2023-02-24T06:52:49.261Z,89.50
2023-02-24T06:55:26.216Z,89.47
2023-02-24T06:57:58.879Z,85.63
2023-02-24T07:00:37.340Z,79.60
2023-02-24T07:03:15.089Z,78.87
2023-02-24T07:05:50.972Z,76.45
2023-02-24T07:08:22.935Z,72.25
2023-02-24T07:10:58.374Z,73.18
2023-02-24T07:13:31.100Z,74.35
2023-02-24T07:16:07.393Z,73.13
2023-02-24T07:18:40.783Z,71.72
2023-02-24T07:21:16.472Z,76.35
2023-02-24T07:23:46.000Z,75.78
2023-02-24T07:26:19.231Z,77.20
2023-02-24T07:28:48.083Z,76.68
2023-02-24T07:31:18.432Z,78.05
2023-02-24T07:33:46.675Z,78.55
2023-02-24T07:36:16.351Z,78.47
2023-02-24T07:38:45.708Z,79.57
2023-02-24T07:41:16.354Z,82.43
2023-02-24T07:43:44.300Z,79.57
2023-02-24T07:46:19.331Z,80.45
2023-02-24T07:48:47.001Z,80.35
2023-02-24T07:51:17.413Z,79.20
2023-02-24T07:53:48.586Z,77.87
2023-02-24T07:56:20.088Z,76.78
2023-02-24T07:58:53.119Z,77.18
2023-02-24T08:01:23.781Z,78.03
2023-02-24T08:04:01.517Z,73.97
2023-02-24T08:06:38.369Z,74.30
2023-02-24T08:09:17.580Z,75.60
2023-02-24T08:11:52.964Z,72.68
2023-02-24T08:14:23.732Z,73.05
2023-02-24T08:16:59.529Z,71.78
2023-02-24T08:19:39.528Z,72.38
2023-02-24T08:22:24.221Z,71.63
2023-02-24T08:25:00.632Z,71.13
2023-02-24T08:27:32.423Z,70.20
2023-02-24T08:30:03.515Z,54.83
2023-02-24T08:32:34.692Z,56.05
2023-02-24T08:35:05.517Z,51.95
2023-02-24T08:37:39.727Z,53.70
2023-02-24T08:40:29.725Z,51.17
2023-02-24T08:43:20.972Z,54.10
2023-02-24T08:45:52.150Z,50.22
2023-02-24T08:48:37.348Z,49.78
2023-02-24T08:51:15.123Z,51.88
2023-02-24T08:53:44.385Z,53.08
2023-02-24T08:56:14.835Z,52.08
2023-02-24T08:58:48.123Z,50.75
2023-02-24T09:01:24.683Z,54.42
2023-02-24T09:03:58.035Z,52.15
2023-02-24T09:06:51.240Z,51.55
2023-02-24T09:09:23.829Z,53.63
2023-02-24T09:12:00.059Z,56.40
2023-02-24T09:14:30.591Z,53.95
2023-02-24T09:17:02.903Z,58.22
2023-02-24T09:19:51.064Z,59.63
2023-02-24T09:22:40.932Z,60.50
2023-02-24T09:25:40.724Z,59.70
2023-02-24T09:28:17.547Z,64.55
2023-02-24T09:30:54.332Z,63.97
2023-02-24T09:35:54.167Z,63.58
2023-02-24T09:38:42.543Z,65.03
2023-02-24T09:41:35.528Z,64.90
2023-02-24T09:44:18.447Z,62.63
2023-02-24T09:47:10.157Z,65.85
2023-02-24T09:50:04.930Z,62.35
2023-02-24T09:52:41.995Z,66.22
2023-02-24T09:55:27.159Z,64.50
2023-02-24T09:58:16.580Z,64.65
2023-02-24T10:01:21.637Z,62.92
2023-02-24T10:04:14.798Z,65.03
2023-02-24T10:07:08.382Z,66.13
2023-02-24T10:09:53.349Z,62.50
2023-02-24T10:12:39.937Z,65.47
2023-02-24T10:15:19.347Z,64.13
2023-02-24T10:17:55.517Z,64.07
2023-02-24T10:20:46.207Z,64.55
2023-02-24T10:23:16.639Z,65.43
2023-02-24T10:25:56.908Z,64.07
2023-02-24T10:28:38.263Z,64.63
2023-02-24T10:31:10.724Z,63.08
2023-02-24T10:33:45.363Z,64.38
2023-02-24T11:26:20.501Z,63.78
2023-02-24T11:28:57.046Z,62.60
2023-02-24T11:59:48.468Z,60.88
2023-02-24T13:01:14.746Z,53.70
2023-02-24T13:03:55.671Z,57.45
2023-02-24T13:06:35.459Z,56.67
2023-02-24T14:29:02.172Z,42.40
2023-02-24T14:31:30.427Z,41.72
2023-02-24T14:34:01.141Z,38.05
2023-02-24T14:36:42.280Z,39.22
2023-02-24T14:39:20.802Z,39.95
2023-02-24T14:41:49.875Z,40.92
2023-02-24T14:44:21.917Z,37.38
2023-02-24T14:46:54.872Z,40.60
2023-02-24T14:49:31.766Z,38.72
2023-02-24T14:52:28.420Z,47.22
2023-02-24T14:55:16.820Z,47.97
2023-02-24T14:57:47.718Z,47.15
2023-02-24T15:00:23.938Z,47.42
2023-02-24T15:03:03.801Z,48.55
2023-02-24T15:05:31.807Z,47.50
2023-02-24T15:08:01.801Z,47.83
2023-02-24T15:10:31.285Z,48.28
2023-02-24T15:13:18.666Z,49.53
2023-02-24T15:15:46.423Z,49.13
2023-02-24T15:18:25.967Z,48.95
2023-02-24T15:21:06.308Z,47.92
2023-02-24T15:23:36.804Z,48.47
2023-02-24T15:26:10.973Z,48.35
2023-02-24T15:28:38.618Z,48.13
2023-02-24T15:31:19.215Z,48.23
2023-02-24T15:33:58.019Z,50.65
2023-02-24T15:36:30.660Z,48.83
2023-02-24T15:39:04.127Z,49.80
2023-02-24T15:41:43.067Z,49.35
2023-02-24T15:44:29.973Z,49.95
2023-02-24T15:46:59.477Z,50.27
2023-02-24T15:49:26.961Z,51.28
2023-02-24T15:51:55.992Z,52.63
2023-02-24T15:54:36.285Z,51.83
2023-02-24T15:57:05.456Z,52.13
2023-02-24T15:59:33.021Z,52.15
2023-02-24T16:02:00.510Z,51.83
2023-02-24T16:04:28.245Z,51.28
2023-02-24T16:06:57.729Z,52.25
2023-02-24T16:09:39.202Z,52.25
2023-02-24T16:12:21.960Z,51.47
2023-02-24T16:14:50.634Z,51.73
2023-02-24T16:17:37.659Z,51.85
2023-02-24T16:20:17.399Z,52.78
2023-02-24T16:22:45.362Z,53.17
2023-02-24T16:25:16.336Z,52.72
2023-02-24T16:27:43.969Z,52.70
2023-02-24T16:30:24.590Z,54.33
2023-02-24T16:32:52.977Z,53.28
2023-02-24T16:35:20.499Z,54.08
2023-02-24T16:37:48.242Z,53.88
2023-02-24T16:40:33.624Z,54.67
2023-02-24T16:43:01.240Z,55.20
2023-02-24T16:45:29.662Z,54.92
2023-02-24T16:48:02.155Z,54.63
2023-02-24T16:50:37.190Z,54.92
2023-02-24T16:53:06.037Z,54.77
2023-02-24T16:55:34.555Z,56.90
2023-02-24T16:58:02.090Z,55.92
2023-02-24T17:00:29.554Z,56.58
2023-02-24T17:02:57.295Z,56.30
2023-02-24T17:05:27.593Z,47.95
